Time;durP1;ratioP1;P1;durP2;ratioP2;P2;SDS_P1;SDS_P2;PMS_P1;PMS_P2;Temp;Humidity;BMP_temperature;BMP_pressure;BME280_temperature;BME280_humidity;BME280_pressure;Samples;Min_cycle;Max_cycle;Signal;HPM_P1;HPM_P2
2021/01/14 00:00:15;;;;;;;17.77;11.45;;;;;;;3.46;80.69;98749.13;5094752;28;20126;-67
2021/01/14 00:02:43;;;;;;;19.88;12.18;;;;;;;3.47;80.77;98740.34;5095465;28;20051;-67
2021/01/14 00:05:12;;;;;;;16.42;12.00;;;;;;;3.46;80.65;98741.28;5093918;28;20418;-67
2021/01/14 00:07:40;;;;;;;17.05;11.20;;;;;;;3.51;80.52;98746.09;5094731;28;20066;-67
2021/01/14 00:10:09;;;;;;;16.30;10.25;;;;;;;3.52;80.50;98734.69;5094150;28;20040;-67
2021/01/14 00:12:36;;;;;;;15.95;11.25;;;;;;;3.54;80.15;98735.34;5094170;28;20043;-67
2021/01/14 00:15:04;;;;;;;15.15;10.25;;;;;;;3.49;80.15;98737.56;5093771;28;20052;-68
2021/01/14 00:17:31;;;;;;;15.52;10.32;;;;;;;3.45;80.16;98750.13;5095305;28;20059;-67
2021/01/14 00:19:59;;;;;;;15.05;10.15;;;;;;;3.51;80.16;98763.56;5099920;28;20051;-67
2021/01/14 00:22:26;;;;;;;13.93;10.23;;;;;;;3.46;80.10;98766.63;5098701;28;20046;-67
2021/01/14 00:24:53;;;;;;;14.73;10.10;;;;;;;3.47;80.07;98763.88;5095005;28;20055;-67
2021/01/14 00:27:19;;;;;;;12.55;9.40;;;;;;;3.44;79.79;98756.31;5094179;28;20056;-67
2021/01/14 00:29:46;;;;;;;11.50;8.68;;;;;;;3.45;79.97;98757.97;5094851;28;20135;-67
2021/01/14 00:32:13;;;;;;;12.98;8.77;;;;;;;3.48;79.73;98762.06;5095589;28;20192;-67
2021/01/14 00:34:40;;;;;;;12.10;8.55;;;;;;;3.40;79.57;98762.81;5094381;28;20417;-67
2021/01/14 00:40:00;;;;;;;11.00;7.85;;;;;;;3.39;79.53;98787.31;5083482;28;20429;-67
2021/01/14 00:42:26;;;;;;;12.77;8.00;;;;;;;3.41;79.51;98800.22;5093866;28;20483;-67
2021/01/14 00:44:53;;;;;;;12.10;7.60;;;;;;;3.38;79.39;98790.88;5092750;28;20413;-67
2021/01/14 00:47:20;;;;;;;9.60;6.97;;;;;;;3.40;79.36;98781.09;5094847;28;20056;-67
2021/01/14 00:49:46;;;;;;;10.75;7.60;;;;;;;3.34;79.29;98784.28;5093921;28;20054;-67
2021/01/14 00:52:14;;;;;;;10.00;7.18;;;;;;;3.32;79.44;98767.94;5095654;28;20051;-67
2021/01/14 00:54:41;;;;;;;9.00;6.50;;;;;;;3.30;79.36;98761.22;5096048;28;20040;-67
2021/01/14 00:57:08;;;;;;;9.10;6.75;;;;;;;3.31;79.29;98768.13;5095388;28;20119;-66
2021/01/14 00:59:35;;;;;;;9.77;6.78;;;;;;;3.30;79.07;98759.44;5095922;28;20047;-67
2021/01/14 01:02:02;;;;;;;9.85;6.65;;;;;;;3.20;79.17;98761.28;5094101;28;20052;-67
2021/01/14 01:04:29;;;;;;;11.18;6.93;;;;;;;3.14;79.16;98764.47;5092690;28;20048;-66
2021/01/14 01:06:55;;;;;;;9.13;6.45;;;;;;;3.17;79.16;98765.00;5093562;28;20044;-67
2021/01/14 01:09:23;;;;;;;7.78;6.13;;;;;;;3.19;79.23;98757.88;5093091;28;20046;-67
2021/01/14 01:11:50;;;;;;;9.98;6.22;;;;;;;3.22;79.05;98754.13;5094331;28;20044;-67
2021/01/14 01:14:17;;;;;;;10.25;5.85;;;;;;;3.23;78.77;98756.59;5093809;28;20047;-67
2021/01/14 01:16:43;;;;;;;8.48;6.30;;;;;;;3.13;78.76;98752.38;5094456;28;20040;-67
2021/01/14 01:19:10;;;;;;;11.05;6.88;;;;;;;3.09;78.86;98762.31;5094072;28;20044;-67
2021/01/14 01:21:41;;;;;;;8.98;6.20;;;;;;;3.10;78.83;98761.34;5094609;28;20482;-67
2021/01/14 01:24:09;;;;;;;7.82;5.80;;;;;;;3.14;78.79;98761.88;5093071;28;20466;-67
2021/01/14 01:26:36;;;;;;;9.55;6.22;;;;;;;3.14;78.83;98764.47;5093070;28;20043;-67
2021/01/14 01:29:04;;;;;;;10.32;6.45;;;;;;;3.18;78.85;98758.00;5094802;28;20040;-67
2021/01/14 01:31:31;;;;;;;8.82;6.43;;;;;;;3.14;78.94;98761.88;5093252;28;20044;-67
2021/01/14 01:33:57;;;;;;;9.85;7.20;;;;;;;3.15;78.97;98766.97;5094584;28;20399;-67
2021/01/14 01:36:24;;;;;;;8.40;6.15;;;;;;;3.22;78.89;98775.00;5093219;28;20387;-67
2021/01/14 01:38:51;;;;;;;8.70;6.97;;;;;;;3.20;78.76;98783.00;5095098;28;20032;-67
2021/01/14 01:41:18;;;;;;;7.45;6.22;;;;;;;3.21;78.72;98782.03;5095120;28;20044;-67
2021/01/14 01:43:45;;;;;;;8.57;6.53;;;;;;;3.20;78.38;98795.25;5095276;28;20058;-68
2021/01/14 01:46:23;;;;;;;7.50;5.35;;;;;;;3.17;78.38;98791.13;5094819;28;20438;-67
2021/01/14 01:48:50;;;;;;;8.00;5.80;;;;;;;3.11;78.42;98798.75;5093902;28;20044;-67
2021/01/14 01:51:18;;;;;;;10.00;6.20;;;;;;;3.09;78.27;98800.66;5094459;28;20055;-67
2021/01/14 01:53:45;;;;;;;8.65;6.15;;;;;;;3.11;78.13;98794.34;5094984;28;20040;-67
2021/01/14 01:56:14;;;;;;;6.40;5.20;;;;;;;3.13;78.08;98791.56;5095065;28;20517;-67
2021/01/14 01:58:41;;;;;;;9.35;5.43;;;;;;;3.16;78.07;98796.50;5093742;28;20044;-67
2021/01/14 02:01:09;;;;;;;11.48;5.22;;;;;;;3.13;77.81;98812.47;5095004;28;20123;-67
2021/01/14 02:03:35;;;;;;;9.82;5.85;;;;;;;3.16;77.84;98807.78;5093790;28;20048;-67
2021/01/14 02:06:03;;;;;;;7.78;6.07;;;;;;;3.11;77.49;98796.13;5094197;28;20051;-67
2021/01/14 02:08:38;;;;;;;6.82;4.90;;;;;;;3.14;77.78;98798.44;5094913;28;20127;-68
2021/01/14 02:11:09;;;;;;;11.35;5.93;;;;;;;3.21;77.68;98800.31;5093789;28;20055;-67
2021/01/14 02:13:42;;;;;;;7.32;4.80;;;;;;;3.22;77.59;98801.13;5095077;28;20040;-68
2021/01/14 02:16:12;;;;;;;9.43;5.47;;;;;;;3.29;77.65;98791.75;5094293;28;20593;-67
2021/01/14 02:18:39;;;;;;;6.15;5.15;;;;;;;3.32;77.36;98798.50;5093088;28;20043;-67
2021/01/14 02:21:08;;;;;;;7.95;5.43;;;;;;;3.29;77.36;98796.97;5094529;28;20044;-67
2021/01/14 02:23:41;;;;;;;7.97;5.13;;;;;;;3.21;77.11;98787.25;5094013;28;20053;-68
2021/01/14 02:26:17;;;;;;;7.20;5.95;;;;;;;3.17;77.12;98782.47;5094466;28;20107;-67
2021/01/14 02:28:45;;;;;;;8.13;6.22;;;;;;;3.27;77.20;98780.66;5093759;28;20054;-67
2021/01/14 02:31:13;;;;;;;6.85;5.63;;;;;;;3.23;76.82;98797.59;5093435;28;20048;-67
2021/01/14 02:33:40;;;;;;;6.85;5.82;;;;;;;3.23;76.78;98787.13;5093217;28;20534;-67
2021/01/14 02:36:07;;;;;;;8.43;5.90;;;;;;;3.27;76.83;98787.66;5094445;28;20041;-67
2021/01/14 02:38:35;;;;;;;8.98;5.25;;;;;;;3.21;76.71;98792.47;5094499;28;20154;-67
2021/01/14 02:41:02;;;;;;;7.95;5.20;;;;;;;3.23;76.68;98784.53;5094829;28;20044;-67
2021/01/14 02:43:29;;;;;;;8.45;5.97;;;;;;;3.28;76.76;98799.75;5094727;28;20494;-67
2021/01/14 02:45:57;;;;;;;7.00;4.97;;;;;;;3.22;76.41;98804.59;5098056;28;20062;-67
2021/01/14 02:48:29;;;;;;;7.38;5.60;;;;;;;3.31;76.71;98807.31;5098259;28;20345;-68
2021/01/14 02:51:00;;;;;;;8.98;5.10;;;;;;;3.32;76.59;98806.34;5096874;28;20055;-67
2021/01/14 02:53:29;;;;;;;7.45;5.65;;;;;;;3.31;76.51;98818.56;5098294;28;20456;-67
2021/01/14 02:55:56;;;;;;;8.18;5.55;;;;;;;3.31;76.46;98820.38;5097404;28;20046;-67
2021/01/14 02:58:23;;;;;;;9.77;5.65;;;;;;;3.37;76.62;98827.59;5097144;28;20043;-67
2021/01/14 03:00:51;;;;;;;7.65;5.03;;;;;;;3.44;76.56;98820.84;5097786;28;20123;-68
2021/01/14 03:03:17;;;;;;;9.52;5.68;;;;;;;3.50;76.43;98824.66;5097270;28;20052;-67
2021/01/14 03:05:44;;;;;;;9.23;5.55;;;;;;;3.42;76.25;98828.81;5097912;28;20064;-68
2021/01/14 03:08:11;;;;;;;8.63;5.50;;;;;;;3.45;76.25;98836.38;5097526;28;20059;-67
2021/01/14 03:10:38;;;;;;;9.40;5.57;;;;;;;3.59;76.19;98829.84;5096257;28;20545;-67
2021/01/14 03:13:04;;;;;;;8.50;5.25;;;;;;;3.58;75.95;98829.97;5097991;28;20048;-68
2021/01/14 03:15:31;;;;;;;6.40;5.20;;;;;;;3.59;75.76;98824.59;5097588;28;20064;-67
2021/01/14 03:17:59;;;;;;;10.15;5.82;;;;;;;3.55;75.98;98827.63;5096915;28;20044;-68
2021/01/14 03:20:25;;;;;;;10.23;5.80;;;;;;;3.52;75.81;98831.38;5095800;28;20047;-67
2021/01/14 03:22:52;;;;;;;7.65;5.75;;;;;;;3.45;75.93;98843.38;5096629;28;20409;-67
2021/01/14 03:25:19;;;;;;;8.02;5.20;;;;;;;3.48;75.87;98837.88;5096339;28;20036;-67
2021/01/14 03:27:46;;;;;;;9.60;6.38;;;;;;;3.53;75.82;98847.88;5096807;28;20115;-67
2021/01/14 03:30:14;;;;;;;8.25;5.28;;;;;;;3.49;75.68;98842.13;5096820;28;20040;-68
2021/01/14 03:32:41;;;;;;;8.45;5.82;;;;;;;3.53;75.87;98842.66;5098127;28;20050;-68
2021/01/14 03:35:10;;;;;;;7.18;5.40;;;;;;;3.47;75.88;98839.66;5099216;28;20516;-67
2021/01/14 03:37:39;;;;;;;8.95;4.72;;;;;;;3.45;75.98;98853.84;5098835;28;20048;-67
2021/01/14 03:40:07;;;;;;;6.85;5.28;;;;;;;3.43;76.02;98853.19;5099801;28;20036;-67
2021/01/14 03:42:34;;;;;;;9.70;6.53;;;;;;;3.39;75.88;98855.25;5099652;28;20040;-67
2021/01/14 03:45:01;;;;;;;9.43;6.53;;;;;;;3.34;75.96;98859.25;5097565;28;20052;-68
2021/01/14 03:47:28;;;;;;;8.40;6.30;;;;;;;3.34;76.01;98867.09;5097828;28;20115;-67
2021/01/14 03:49:54;;;;;;;8.43;6.38;;;;;;;3.31;75.86;98880.47;5099065;28;20126;-67
2021/01/14 03:52:22;;;;;;;10.93;5.93;;;;;;;3.28;75.97;98878.94;5099507;28;20069;-68
2021/01/14 03:54:49;;;;;;;8.10;5.85;;;;;;;3.21;76.08;98881.31;5097418;28;20044;-67
2021/01/14 03:57:15;;;;;;;7.45;5.43;;;;;;;3.20;76.28;98886.69;5098454;28;20401;-67
2021/01/14 03:59:43;;;;;;;8.82;5.97;;;;;;;3.16;76.11;98886.16;5098631;28;20058;-66
2021/01/14 04:02:10;;;;;;;10.45;5.22;;;;;;;3.15;76.28;98878.47;5097428;28;20509;-67
2021/01/14 04:04:40;;;;;;;8.02;5.35;;;;;;;3.08;76.05;98883.44;5096837;28;20131;-67
2021/01/14 04:07:07;;;;;;;9.98;5.53;;;;;;;2.93;76.22;98880.44;5097209;28;20055;-67
2021/01/14 04:09:35;;;;;;;8.57;5.60;;;;;;;2.84;76.42;98883.91;5096292;28;20052;-67
2021/01/14 04:12:02;;;;;;;8.30;5.57;;;;;;;2.72;76.69;98885.84;5095454;28;20048;-66
2021/01/14 04:14:29;;;;;;;8.23;5.03;;;;;;;2.66;76.89;98881.22;5097066;28;20044;-66
2021/01/14 04:16:55;;;;;;;7.75;5.28;;;;;;;2.72;77.14;98880.63;5096110;28;20052;-67
2021/01/14 04:19:22;;;;;;;9.07;5.32;;;;;;;2.71;76.91;98894.66;5100091;28;20047;-66
2021/01/14 04:21:49;;;;;;;8.23;5.43;;;;;;;2.75;77.28;98895.19;5097997;28;20055;-66
2021/01/14 04:24:16;;;;;;;8.38;5.38;;;;;;;2.67;77.24;98890.69;5097818;28;20044;-66
2021/01/14 04:26:44;;;;;;;10.38;5.43;;;;;;;2.68;77.44;98899.31;5095117;28;20067;-66
2021/01/14 04:29:11;;;;;;;10.50;6.03;;;;;;;2.77;77.14;98895.06;5097205;28;20044;-66
2021/01/14 04:31:38;;;;;;;9.60;5.97;;;;;;;2.67;77.25;98895.91;5097170;28;20036;-67
2021/01/14 04:34:04;;;;;;;10.45;5.75;;;;;;;2.65;77.31;98902.22;5096715;28;20052;-66
2021/01/14 04:36:31;;;;;;;11.23;5.63;;;;;;;2.69;77.36;98899.22;5096291;28;20537;-66
2021/01/14 04:38:58;;;;;;;7.18;4.95;;;;;;;2.72;77.20;98904.13;5094817;28;20047;-66
2021/01/14 04:41:31;;;;;;;8.70;5.72;;;;;;;2.71;77.19;98905.09;5096254;28;20047;-66
2021/01/14 04:43:58;;;;;;;12.23;6.07;;;;;;;2.65;77.17;98908.28;5096387;28;20047;-66
2021/01/14 04:46:32;;;;;;;10.68;5.72;;;;;;;2.65;77.24;98916.13;5094300;28;20040;-66
2021/01/14 04:49:00;;;;;;;14.80;6.05;;;;;;;2.72;77.13;98919.78;5095740;28;20440;-66
2021/01/14 04:51:30;;;;;;;8.93;6.15;;;;;;;2.75;77.13;98916.09;5094011;28;20497;-66
2021/01/14 04:54:02;;;;;;;8.07;5.70;;;;;;;2.79;76.93;98908.81;5091983;28;20044;-66
2021/01/14 04:56:35;;;;;;;9.40;6.65;;;;;;;2.76;76.64;98907.28;5092942;28;20036;-67
2021/01/14 04:59:04;;;;;;;8.20;5.68;;;;;;;2.76;76.66;98909.06;5093918;28;20052;-66
2021/01/14 05:01:34;;;;;;;7.72;5.55;;;;;;;2.73;76.74;98903.19;5094369;28;20051;-67
2021/01/14 05:04:04;;;;;;;9.40;6.20;;;;;;;2.72;76.86;98900.69;5093487;28;20517;-66
2021/01/14 05:06:36;;;;;;;10.50;6.13;;;;;;;2.75;77.02;98904.81;5093458;28;20050;-67
2021/01/14 05:09:05;;;;;;;9.32;5.75;;;;;;;2.75;76.85;98907.44;5093789;28;20040;-67
2021/01/14 05:11:42;;;;;;;8.27;5.95;;;;;;;2.70;77.12;98908.69;5093056;28;20036;-66
2021/01/14 05:14:09;;;;;;;9.95;6.72;;;;;;;2.61;77.08;98906.06;5092948;28;20047;-67
2021/01/14 05:16:37;;;;;;;9.05;6.25;;;;;;;2.57;77.20;98910.75;5093481;28;20055;-67
2021/01/14 05:19:03;;;;;;;11.95;8.00;;;;;;;2.47;77.41;98905.53;5093107;28;20048;-67
2021/01/14 05:21:34;;;;;;;10.82;7.03;;;;;;;2.51;77.68;98907.88;5091880;28;20046;-67
2021/01/14 05:24:08;;;;;;;9.02;6.05;;;;;;;2.55;77.54;98914.47;5093544;28;20410;-66
2021/01/14 05:26:34;;;;;;;9.30;6.35;;;;;;;2.47;77.48;98905.53;5094712;28;20143;-67
2021/01/14 05:29:12;;;;;;;12.57;6.90;;;;;;;2.51;77.54;98905.25;5092089;28;20044;-67
2021/01/14 05:31:39;;;;;;;8.98;6.47;;;;;;;2.47;77.70;98900.31;5093055;28;20116;-67
2021/01/14 05:34:05;;;;;;;9.70;6.75;;;;;;;2.55;77.56;98906.63;5093018;28;20040;-67
2021/01/14 05:36:56;;;;;;;9.57;7.05;;;;;;;2.55;77.48;98907.44;5092629;28;20040;-67
2021/01/14 05:39:23;;;;;;;9.70;6.38;;;;;;;2.48;77.53;98908.97;5094348;28;20046;-67
2021/01/14 05:41:51;;;;;;;9.85;7.40;;;;;;;2.42;77.53;98922.56;5094591;28;20047;-67
2021/01/14 05:44:34;;;;;;;10.25;6.85;;;;;;;2.44;77.70;98926.69;5095680;28;20039;-68
2021/01/14 05:47:19;;;;;;;10.15;7.10;;;;;;;2.44;77.73;98931.91;5092684;28;20070;-67
2021/01/14 05:49:56;;;;;;;10.55;7.00;;;;;;;2.37;77.85;98933.44;5093621;28;20044;-68
2021/01/14 05:52:24;;;;;;;11.30;7.20;;;;;;;2.41;77.79;98926.97;5093523;28;20505;-68
2021/01/14 05:54:58;;;;;;;14.38;8.18;;;;;;;2.40;77.68;98933.13;5093236;28;20476;-67
2021/01/14 05:57:32;;;;;;;13.30;8.70;;;;;;;2.33;77.83;98942.50;5094346;28;20040;-68
2021/01/14 06:00:01;;;;;;;13.65;8.32;;;;;;;2.27;77.90;98958.66;5094535;28;20040;-67
2021/01/14 06:02:31;;;;;;;18.42;11.95;;;;;;;2.26;78.20;98953.59;5095154;28;20521;-68
2021/01/14 06:04:59;;;;;;;14.95;9.45;;;;;;;2.28;78.39;98957.72;5093951;28;20044;-68
2021/01/14 06:07:38;;;;;;;12.55;9.00;;;;;;;2.33;78.28;98957.31;5095967;28;20044;-68
2021/01/14 06:10:07;;;;;;;13.23;8.63;;;;;;;2.36;78.15;98952.63;5096278;28;20417;-68
2021/01/14 06:12:33;;;;;;;11.80;8.27;;;;;;;2.38;78.24;98958.56;5096028;28;20040;-68
2021/01/14 06:15:15;;;;;;;13.15;9.20;;;;;;;2.42;78.27;98972.16;5095017;28;20048;-67
2021/01/14 06:17:44;;;;;;;12.77;8.65;;;;;;;2.43;78.26;98981.63;5094787;28;20040;-67
2021/01/14 06:20:11;;;;;;;11.43;7.75;;;;;;;2.48;77.99;98977.63;5097493;28;20118;-68
2021/01/14 06:22:38;;;;;;;11.52;8.45;;;;;;;2.42;78.01;98974.75;5098380;28;20515;-67
2021/01/14 06:25:06;;;;;;;13.13;9.00;;;;;;;2.43;78.15;98979.00;5098094;28;20114;-67
2021/01/14 06:27:33;;;;;;;13.65;9.23;;;;;;;2.39;78.15;98983.66;5096954;28;20043;-67
2021/01/14 06:30:07;;;;;;;12.93;8.80;;;;;;;2.35;78.16;98986.69;5098427;28;20048;-68
2021/01/14 06:32:37;;;;;;;14.65;8.52;;;;;;;2.24;78.18;98987.63;5098572;28;20050;-68
2021/01/14 06:35:06;;;;;;;11.52;8.05;;;;;;;2.20;78.29;98988.84;5097915;28;20406;-68
2021/01/14 06:37:36;;;;;;;14.50;9.57;;;;;;;2.20;78.51;98994.06;5098151;28;20051;-68
2021/01/14 06:40:06;;;;;;;14.45;8.35;;;;;;;2.33;78.74;98980.81;5097590;28;20066;-68
2021/01/14 06:42:34;;;;;;;12.25;8.65;;;;;;;2.31;78.61;98980.09;5098986;28;20040;-68
2021/01/14 06:45:02;;;;;;;15.68;8.35;;;;;;;2.30;78.42;98984.50;5098881;28;20036;-67
2021/01/14 06:47:32;;;;;;;10.52;7.45;;;;;;;2.32;78.38;98990.38;5097686;28;20474;-66
2021/01/14 06:50:26;;;;;;;15.10;8.90;;;;;;;2.24;78.35;98998.06;5097496;28;20055;-68
2021/01/14 06:52:55;;;;;;;13.90;9.23;;;;;;;2.27;78.47;98999.59;5099065;28;20044;-68
2021/01/14 06:55:23;;;;;;;12.73;9.38;;;;;;;2.28;78.75;98990.78;5098314;28;20051;-67
2021/01/14 06:58:05;;;;;;;14.23;8.70;;;;;;;2.23;78.55;98976.38;5096744;28;20056;-67
2021/01/14 07:00:34;;;;;;;18.15;9.52;;;;;;;2.20;78.54;98976.66;5098024;28;20048;-68
2021/01/14 07:03:35;;;;;;;13.90;7.97;;;;;;;2.20;78.50;98986.25;5097826;28;20044;-67
2021/01/14 07:06:20;;;;;;;10.25;7.22;;;;;;;2.17;78.15;98991.75;5097512;28;20066;-67
2021/01/14 07:09:03;;;;;;;13.52;7.53;;;;;;;2.16;78.08;99008.34;5096293;28;20066;-67
2021/01/14 07:11:33;;;;;;;13.50;9.15;;;;;;;2.13;77.74;99012.06;5096996;28;20055;-67
2021/01/14 07:14:11;;;;;;;13.55;8.45;;;;;;;2.13;78.01;99008.63;5095777;28;20054;-68
2021/01/14 07:16:42;;;;;;;14.40;7.55;;;;;;;2.20;78.10;98996.69;5097008;28;20402;-67
2021/01/14 07:19:10;;;;;;;14.20;8.02;;;;;;;2.15;77.78;98998.88;5096832;28;20044;-67
2021/01/14 07:21:37;;;;;;;16.85;8.88;;;;;;;2.23;77.85;98983.38;5097258;28;20051;-67
2021/01/14 07:24:18;;;;;;;15.55;9.23;;;;;;;2.29;77.51;99001.13;5097273;28;20064;-68
2021/01/14 07:26:46;;;;;;;15.32;8.75;;;;;;;2.25;77.24;99004.94;5097121;28;20039;-68
2021/01/14 07:29:14;;;;;;;14.98;9.23;;;;;;;2.23;77.38;99007.69;5097696;28;20551;-67
2021/01/14 07:31:49;;;;;;;14.40;8.85;;;;;;;2.27;77.52;99005.63;5094427;28;20062;-67
2021/01/14 07:34:34;;;;;;;17.25;7.95;;;;;;;2.34;77.22;99008.53;5094485;28;20044;-67
2021/01/14 07:37:07;;;;;;;21.00;8.68;;;;;;;2.44;77.00;99009.34;5094472;28;20409;-67
2021/01/14 07:39:48;;;;;;;17.63;8.40;;;;;;;2.54;76.69;99020.66;5093262;28;20125;-67
2021/01/14 07:42:23;;;;;;;16.05;8.70;;;;;;;2.54;76.37;99017.22;5094636;28;20059;-66
2021/01/14 07:44:51;;;;;;;14.82;8.82;;;;;;;2.48;76.18;99031.59;5093360;28;20056;-67
2021/01/14 07:47:27;;;;;;;21.08;9.45;;;;;;;2.33;76.19;99032.97;5094869;28;20482;-67
2021/01/14 07:49:54;;;;;;;16.73;8.43;;;;;;;2.26;76.63;99037.91;5094884;28;20036;-67
2021/01/14 07:52:35;;;;;;;17.48;8.98;;;;;;;2.18;76.34;99042.97;5093517;28;20418;-65
2021/01/14 07:55:04;;;;;;;17.50;8.60;;;;;;;2.04;76.99;99049.38;5094080;28;20055;-65
2021/01/14 07:57:42;;;;;;;16.38;8.63;;;;;;;2.19;77.09;99052.41;5094467;28;20155;-65
2021/01/14 08:00:21;;;;;;;17.05;8.55;;;;;;;2.33;77.12;99049.47;5094280;28;20067;-68
2021/01/14 08:03:10;;;;;;;15.90;8.00;;;;;;;2.50;76.70;99050.59;5094379;28;20502;-66
2021/01/14 08:05:39;;;;;;;18.17;8.98;;;;;;;2.62;76.41;99053.91;5092586;28;20199;-65
2021/01/14 08:08:32;;;;;;;18.48;8.23;;;;;;;2.66;76.10;99052.66;5094059;28;20383;-66
2021/01/14 08:11:10;;;;;;;15.32;8.10;;;;;;;2.71;76.06;99053.06;5094272;28;20047;-66
2021/01/14 08:14:03;;;;;;;15.43;7.35;;;;;;;2.83;75.81;99056.38;5093832;28;20050;-66
2021/01/14 08:16:34;;;;;;;14.43;8.07;;;;;;;2.81;75.45;99066.13;5093448;28;20508;-66
2021/01/14 08:19:23;;;;;;;16.67;8.70;;;;;;;2.68;75.22;99066.38;5096152;28;20051;-67
2021/01/14 08:22:05;;;;;;;18.70;7.88;;;;;;;2.60;74.97;99066.25;5079717;28;20167;-66
2021/01/14 08:24:44;;;;;;;15.90;8.23;;;;;;;2.61;75.34;99052.22;5095381;28;20493;-67
2021/01/14 08:27:24;;;;;;;12.00;7.65;;;;;;;2.73;75.47;99046.75;5093411;28;20050;-67
2021/01/14 08:29:57;;;;;;;13.55;6.95;;;;;;;2.81;74.70;99045.22;5093587;28;20059;-67
2021/01/14 08:32:29;;;;;;;11.65;6.93;;;;;;;2.90;74.18;99047.03;5093679;28;20123;-67
2021/01/14 08:34:56;;;;;;;7.72;6.03;;;;;;;2.85;74.02;99050.03;5093110;28;20040;-67
2021/01/14 08:37:32;;;;;;;12.20;6.43;;;;;;;2.83;74.02;99048.56;5093155;28;20040;-67
2021/01/14 08:40:00;;;;;;;12.95;8.38;;;;;;;2.82;74.09;99049.50;5093296;28;20066;-67
2021/01/14 08:42:31;;;;;;;8.45;5.03;;;;;;;2.81;73.73;99047.84;5092443;28;20055;-66
2021/01/14 08:45:08;;;;;;;9.07;5.43;;;;;;;2.83;73.33;99051.97;5092848;28;20410;-65
2021/01/14 08:47:54;;;;;;;10.82;5.65;;;;;;;2.83;72.86;99054.59;5093157;28;20051;-65
2021/01/14 08:50:36;;;;;;;7.72;5.72;;;;;;;2.78;72.83;99064.63;5092931;28;20161;-66
2021/01/14 08:53:05;;;;;;;9.18;4.35;;;;;;;2.78;72.79;99072.47;5092973;28;20036;-66
2021/01/14 08:55:33;;;;;;;6.60;3.70;;;;;;;2.76;72.99;99078.75;5091357;28;20048;-65
2021/01/14 08:58:00;;;;;;;8.40;4.78;;;;;;;2.79;72.70;99092.38;5092813;28;20044;-66
2021/01/14 09:00:27;;;;;;;8.85;5.53;;;;;;;2.83;72.82;99098.97;5092885;28;20040;-65
2021/01/14 09:02:54;;;;;;;8.35;6.22;;;;;;;2.87;73.25;99095.13;5092733;28;20058;-66
2021/01/14 09:05:21;;;;;;;9.27;6.28;;;;;;;2.89;73.02;99097.59;5091123;28;20052;-65
2021/01/14 09:08:05;;;;;;;10.25;6.30;;;;;;;2.89;73.01;99105.44;5092389;28;20040;-66
2021/01/14 09:10:47;;;;;;;10.65;6.45;;;;;;;2.95;72.43;99110.13;5092617;28;20055;-65
2021/01/14 09:13:16;;;;;;;12.55;5.88;;;;;;;2.93;72.08;99099.78;5092517;28;20054;-66
2021/01/14 09:15:43;;;;;;;7.55;5.00;;;;;;;2.98;72.21;99107.25;5092045;28;20032;-65
2021/01/14 09:18:11;;;;;;;8.80;5.13;;;;;;;3.00;71.97;99109.72;5092390;28;20048;-66
2021/01/14 09:20:38;;;;;;;8.90;5.50;;;;;;;2.95;71.68;99104.91;5092348;28;20089;-66
2021/01/14 09:23:17;;;;;;;8.18;5.00;;;;;;;2.98;71.98;99100.22;5092534;28;20060;-66
2021/01/14 09:25:46;;;;;;;8.15;4.78;;;;;;;3.04;71.99;99104.06;5091962;28;20051;-66
2021/01/14 09:28:13;;;;;;;12.98;6.70;;;;;;;3.05;71.80;99108.31;5090939;28;20494;-66
2021/01/14 09:30:39;;;;;;;8.27;5.47;;;;;;;3.03;71.78;99105.03;5092194;28;20051;-66
2021/01/14 09:33:06;;;;;;;7.60;4.90;;;;;;;2.92;71.24;99105.16;5092212;28;20044;-66
2021/01/14 09:35:33;;;;;;;17.38;11.23;;;;;;;2.84;71.41;99108.44;5092053;28;20040;-66
2021/01/14 09:38:00;;;;;;;13.57;8.65;;;;;;;2.86;71.74;99101.31;5092446;28;20040;-66
2021/01/14 09:40:27;;;;;;;14.95;6.65;;;;;;;2.97;71.74;99100.34;5092283;28;20597;-65
2021/01/14 09:42:59;;;;;;;7.03;5.55;;;;;;;2.88;71.60;99106.41;5092409;28;20043;-65
2021/01/14 09:45:26;;;;;;;8.35;7.00;;;;;;;2.95;71.57;99110.94;5090547;28;20044;-66
2021/01/14 09:47:53;;;;;;;9.90;5.10;;;;;;;2.84;71.18;99118.06;5092360;28;20524;-65
2021/01/14 09:50:25;;;;;;;18.63;9.68;;;;;;;2.92;71.29;99123.44;5092555;28;20539;-65
2021/01/14 09:52:52;;;;;;;8.57;6.20;;;;;;;2.84;71.18;99123.31;5094141;28;20072;-65
2021/01/14 09:55:20;;;;;;;11.07;5.75;;;;;;;2.81;71.66;99132.22;5094950;28;20044;-65
2021/01/14 09:57:51;;;;;;;10.57;6.63;;;;;;;2.89;71.94;99142.00;5096261;28;20040;-66
2021/01/14 10:00:23;;;;;;;13.63;8.73;;;;;;;2.88;72.02;99135.94;5096426;28;20501;-65
2021/01/14 10:02:53;;;;;;;11.65;7.60;;;;;;;2.90;71.99;99144.47;5096269;28;20036;-66
2021/01/14 10:05:21;;;;;;;8.65;5.55;;;;;;;2.93;72.07;99151.22;5095815;28;20048;-66
2021/01/14 10:07:59;;;;;;;10.05;6.82;;;;;;;2.95;71.55;99155.34;5096072;28;20105;-66
2021/01/14 10:10:29;;;;;;;11.45;6.90;;;;;;;2.90;71.24;99164.56;5095908;28;20482;-66
2021/01/14 10:12:58;;;;;;;11.55;6.15;;;;;;;2.78;71.32;99173.47;5095871;28;20059;-66
2021/01/14 10:15:26;;;;;;;12.18;6.40;;;;;;;2.78;71.66;99171.69;5095784;28;20040;-66
2021/01/14 10:17:52;;;;;;;9.30;5.93;;;;;;;2.77;71.89;99170.00;5095702;28;20040;-66
2021/01/14 10:20:19;;;;;;;6.97;5.38;;;;;;;2.88;72.25;99169.88;5095686;28;20418;-66
2021/01/14 10:22:47;;;;;;;12.00;7.07;;;;;;;3.00;72.03;99167.16;5095635;28;20051;-65
2021/01/14 10:25:15;;;;;;;11.50;8.30;;;;;;;3.06;71.94;99164.84;5095306;28;20047;-66
2021/01/14 10:27:42;;;;;;;11.63;7.43;;;;;;;3.10;71.74;99163.63;5095474;28;20063;-66
2021/01/14 10:30:19;;;;;;;8.82;6.38;;;;;;;3.09;71.80;99161.94;5094302;28;20131;-66
2021/01/14 10:32:48;;;;;;;16.80;9.20;;;;;;;3.17;71.49;99171.72;5095653;28;20040;-66
2021/01/14 10:35:26;;;;;;;20.05;10.85;;;;;;;3.13;71.12;99159.88;5093941;28;20048;-66
2021/01/14 10:38:04;;;;;;;11.85;6.97;;;;;;;3.15;71.57;99169.25;5095488;28;20420;-66
2021/01/14 10:40:40;;;;;;;13.15;7.95;;;;;;;3.23;71.59;99168.56;5095654;28;20051;-65
2021/01/14 10:43:08;;;;;;;17.40;7.93;;;;;;;3.17;71.42;99166.50;5094595;28;20051;-66
2021/01/14 10:45:36;;;;;;;11.80;6.68;;;;;;;3.19;71.56;99164.59;5095699;28;20043;-65
2021/01/14 10:48:10;;;;;;;11.95;6.85;;;;;;;3.21;71.02;99179.16;5095271;28;20052;-66
2021/01/14 10:50:47;;;;;;;13.95;6.25;;;;;;;3.16;70.76;99176.13;5095017;28;20559;-66
2021/01/14 10:53:29;;;;;;;9.50;5.85;;;;;;;3.14;71.06;99167.59;5093880;28;20044;-66
2021/01/14 10:56:04;;;;;;;12.05;5.50;;;;;;;3.21;71.34;99165.25;5094669;28;20044;-65
2021/01/14 10:58:35;;;;;;;6.18;4.88;;;;;;;3.30;71.09;99158.38;5095189;28;20040;-66
2021/01/14 11:01:02;;;;;;;9.05;5.43;;;;;;;3.40;70.53;99159.22;5095476;28;20048;-66
2021/01/14 11:03:43;;;;;;;11.00;5.90;;;;;;;3.42;70.19;99149.44;5094967;28;20058;-67
2021/01/14 11:06:10;;;;;;;12.23;5.70;;;;;;;3.27;69.75;99163.91;5092730;28;20046;-66
2021/01/14 11:08:42;;;;;;;8.77;5.32;;;;;;;3.08;70.30;99152.47;5094953;28;20040;-66
2021/01/14 11:11:10;;;;;;;8.30;5.32;;;;;;;3.16;70.95;99141.34;5093611;28;20044;-67
2021/01/14 11:13:42;;;;;;;9.90;5.75;;;;;;;3.28;71.00;99144.66;5093642;28;20050;-66
2021/01/14 11:16:10;;;;;;;14.63;7.13;;;;;;;3.26;70.06;99129.09;5094656;28;20521;-66
2021/01/14 11:18:39;;;;;;;11.38;6.22;;;;;;;3.10;70.23;99129.66;5095011;28;20514;-66
2021/01/14 11:21:07;;;;;;;10.98;6.63;;;;;;;3.08;70.64;99133.38;5095080;28;20044;-66
2021/01/14 11:23:35;;;;;;;11.52;6.15;;;;;;;3.11;70.44;99133.09;5094776;28;20043;-66
2021/01/14 11:26:02;;;;;;;9.80;5.28;;;;;;;2.97;69.94;99129.91;5094733;28;20040;-66
2021/01/14 11:28:30;;;;;;;11.15;6.45;;;;;;;2.78;70.30;99137.72;5094895;28;20506;-66
2021/01/14 11:30:57;;;;;;;13.65;7.40;;;;;;;2.69;70.69;99128.94;5094890;28;20048;-66
2021/01/14 11:33:27;;;;;;;12.82;6.78;;;;;;;2.66;70.92;99131.78;5094826;28;20413;-66
2021/01/14 11:35:54;;;;;;;13.95;6.70;;;;;;;2.73;71.32;99134.69;5094126;28;20048;-66
2021/01/14 11:38:22;;;;;;;10.70;6.38;;;;;;;2.88;71.56;99130.72;5094651;28;20055;-67
2021/01/14 11:40:49;;;;;;;14.07;7.13;;;;;;;2.82;71.29;99130.47;5093128;28;20052;-66
2021/01/14 11:43:16;;;;;;;12.98;7.63;;;;;;;2.73;71.18;99122.47;5092909;28;20052;-66
2021/01/14 11:45:43;;;;;;;13.18;7.70;;;;;;;2.72;70.74;99118.19;5094013;28;20040;-66
2021/01/14 11:48:10;;;;;;;13.98;8.07;;;;;;;2.77;71.45;99122.19;5094120;28;20044;-67
2021/01/14 11:50:37;;;;;;;10.63;7.13;;;;;;;2.83;71.46;99127.69;5094092;28;20117;-66
2021/01/14 11:53:04;;;;;;;19.48;9.00;;;;;;;2.91;71.59;99117.41;5094489;28;20051;-66